Time;durP1;ratioP1;P1;durP2;ratioP2;P2;SDS_P1;SDS_P2;PMS_P1;PMS_P2;Temp;Humidity;BMP_temperature;BMP_pressure;BME280_temperature;BME280_humidity;BME280_pressure;Samples;Min_cycle;Max_cycle;Signal;HPM_P1;HPM_P2
2024/01/28 00:01:15;;;;;;;6.97;2.80;;;1.90;99.90;;;;;;4993898;28;20184;-81
2024/01/28 00:03:41;;;;;;;11.33;3.43;;;1.90;99.90;;;;;;4994754;28;20585;-81
2024/01/28 00:06:07;;;;;;;10.60;2.90;;;2.00;99.90;;;;;;4993312;28;20191;-81
2024/01/28 00:08:33;;;;;;;8.67;2.97;;;1.90;99.90;;;;;;4993389;28;20184;-81
2024/01/28 00:10:58;;;;;;;12.30;3.27;;;1.90;99.90;;;;;;4993352;28;20188;-82
2024/01/28 00:13:25;;;;;;;14.97;3.10;;;1.80;99.90;;;;;;4992567;28;20195;-81
2024/01/28 00:15:52;;;;;;;13.00;3.20;;;1.60;99.90;;;;;;4992686;28;20187;-81
2024/01/28 00:18:19;;;;;;;13.70;3.27;;;1.70;99.90;;;;;;4992976;28;20190;-81
2024/01/28 00:20:45;;;;;;;7.87;2.93;;;1.80;99.90;;;;;;5002709;28;20697;-82
2024/01/28 00:23:11;;;;;;;9.27;2.73;;;1.80;99.90;;;;;;4993339;28;20900;-82
2024/01/28 00:25:37;;;;;;;7.37;2.83;;;1.80;99.90;;;;;;4993788;28;20223;-82
2024/01/28 00:28:03;;;;;;;15.03;2.93;;;1.80;99.90;;;;;;4995241;28;20244;-81
2024/01/28 00:32:59;;;;;;;9.47;3.00;;;1.80;99.90;;;;;;5003468;28;20579;-91
2024/01/28 00:35:25;;;;;;;11.30;3.00;;;1.70;99.90;;;;;;5005298;28;20196;-90
2024/01/28 00:37:54;;;;;;;13.23;3.40;;;1.70;99.90;;;;;;4996496;28;20207;-90
2024/01/28 00:40:20;;;;;;;11.73;2.90;;;1.70;99.90;;;;;;4995323;28;20196;-91
2024/01/28 00:42:49;;;;;;;9.17;3.00;;;1.70;99.90;;;;;;4995423;28;20187;-91
2024/01/28 00:45:15;;;;;;;14.00;2.90;;;1.70;99.90;;;;;;4996248;28;20243;-90
2024/01/28 00:47:43;;;;;;;8.77;2.93;;;1.70;99.90;;;;;;5006424;28;20191;-91
2024/01/28 00:50:09;;;;;;;9.47;3.03;;;1.60;99.90;;;;;;4997773;28;20187;-91
2024/01/28 00:52:35;;;;;;;11.13;3.47;;;1.60;99.90;;;;;;4995242;28;20199;-91
2024/01/28 00:55:24;;;;;;;8.50;2.63;;;1.60;99.90;;;;;;5003205;28;20243;-91
2024/01/28 00:57:50;;;;;;;8.13;2.97;;;1.50;99.90;;;;;;4989119;28;20247;-91
2024/01/28 01:00:16;;;;;;;15.23;3.07;;;1.40;99.90;;;;;;4993269;28;20188;-92
2024/01/28 01:02:46;;;;;;;11.10;2.93;;;1.40;99.90;;;;;;5005044;28;20540;-91
2024/01/28 01:05:11;;;;;;;12.37;3.00;;;1.40;99.90;;;;;;5005042;28;20215;-91
2024/01/28 01:07:37;;;;;;;14.37;3.77;;;1.40;99.90;;;;;;5014441;28;20179;-91
2024/01/28 01:10:04;;;;;;;9.47;3.23;;;1.40;99.90;;;;;;5006649;28;20187;-91
2024/01/28 01:12:31;;;;;;;13.37;3.20;;;1.40;99.90;;;;;;5010802;28;20234;-91
2024/01/28 01:14:57;;;;;;;8.17;3.30;;;1.40;99.90;;;;;;4995946;28;20630;-90
2024/01/28 01:17:22;;;;;;;12.23;3.20;;;1.40;99.90;;;;;;4992127;28;20194;-92
2024/01/28 01:19:48;;;;;;;9.43;2.90;;;1.40;99.90;;;;;;4983325;28;20184;-92
2024/01/28 01:22:14;;;;;;;9.90;2.83;;;1.20;99.90;;;;;;4984608;28;20180;-92
2024/01/28 01:24:40;;;;;;;13.27;3.20;;;1.20;99.90;;;;;;5000840;28;20321;-92
2024/01/28 01:27:06;;;;;;;14.93;3.13;;;1.20;99.90;;;;;;4997850;28;20617;-90
2024/01/28 01:29:32;;;;;;;11.80;2.90;;;1.20;99.90;;;;;;5002367;28;20183;-90
2024/01/28 01:31:57;;;;;;;10.93;2.87;;;1.20;99.90;;;;;;4998176;28;20238;-90
2024/01/28 01:34:26;;;;;;;9.17;3.00;;;1.30;99.90;;;;;;4986445;28;20188;-91
2024/01/28 01:36:52;;;;;;;18.23;3.57;;;1.30;99.90;;;;;;4994357;28;20215;-92
2024/01/28 01:39:17;;;;;;;15.33;3.10;;;1.30;99.90;;;;;;5000931;28;20184;-90
2024/01/28 01:41:46;;;;;;;14.37;2.80;;;1.20;99.90;;;;;;4983090;28;20665;-90
2024/01/28 01:44:15;;;;;;;13.13;3.50;;;1.20;99.90;;;;;;4984103;28;20215;-90
2024/01/28 01:46:44;;;;;;;10.03;2.50;;;1.10;99.90;;;;;;5002449;28;20195;-92
2024/01/28 01:49:11;;;;;;;9.17;2.83;;;1.10;99.90;;;;;;4994409;28;20206;-91
2024/01/28 01:51:38;;;;;;;7.03;2.07;;;1.00;99.90;;;;;;5014000;28;20286;-92
2024/01/28 01:54:11;;;;;;;11.53;3.07;;;1.00;99.90;;;;;;4998021;28;20187;-91
2024/01/28 01:56:38;;;;;;;11.60;3.13;;;1.10;99.90;;;;;;4994243;28;20183;-92
2024/01/28 01:59:04;;;;;;;8.93;2.53;;;1.20;99.90;;;;;;4986351;28;20212;-92
2024/01/28 02:01:31;;;;;;;5.33;2.73;;;1.20;99.90;;;;;;4994310;28;20188;-92
2024/01/28 02:03:58;;;;;;;15.70;3.20;;;1.30;99.90;;;;;;4987511;28;20199;-92
2024/01/28 02:06:25;;;;;;;9.40;2.93;;;1.30;99.90;;;;;;4985668;28;20189;-90
2024/01/28 02:08:50;;;;;;;11.50;3.17;;;1.20;99.90;;;;;;5014011;28;20187;-93
2024/01/28 02:11:17;;;;;;;9.70;3.27;;;1.10;99.90;;;;;;4995059;28;20246;-91
2024/01/28 02:13:43;;;;;;;11.20;2.90;;;1.00;99.90;;;;;;4988099;28;20196;-91
2024/01/28 02:16:09;;;;;;;10.83;2.83;;;1.00;99.90;;;;;;4986386;28;20673;-93
2024/01/28 02:18:35;;;;;;;8.67;3.23;;;0.90;99.90;;;;;;5010589;28;20278;-91
2024/01/28 02:21:01;;;;;;;15.03;3.53;;;1.00;99.90;;;;;;5002450;28;20602;-92
2024/01/28 02:23:27;;;;;;;8.57;3.37;;;1.10;99.90;;;;;;5005381;28;20187;-92
2024/01/28 02:25:52;;;;;;;15.23;3.73;;;1.00;99.90;;;;;;4999153;28;20231;-92
2024/01/28 02:28:18;;;;;;;9.83;2.70;;;1.00;99.90;;;;;;5000586;28;20187;-93
2024/01/28 02:30:44;;;;;;;12.40;3.47;;;1.00;99.90;;;;;;4983611;28;20267;-92
2024/01/28 02:33:18;;;;;;;9.47;3.03;;;1.00;99.90;;;;;;5007971;28;20181;-93
2024/01/28 02:35:44;;;;;;;11.50;2.47;;;1.00;99.90;;;;;;5008641;28;20191;-93
2024/01/28 02:38:11;;;;;;;10.77;3.23;;;1.00;99.90;;;;;;5002845;28;20187;-94
2024/01/28 02:40:37;;;;;;;8.13;2.87;;;0.90;99.90;;;;;;5013548;28;20278;-94
2024/01/28 02:43:05;;;;;;;9.77;2.57;;;1.00;99.90;;;;;;5000334;28;20243;-94
2024/01/28 02:45:31;;;;;;;12.00;3.10;;;1.00;99.90;;;;;;5005312;28;20219;-94
2024/01/28 02:47:57;;;;;;;9.67;3.13;;;1.00;99.90;;;;;;4996845;28;20186;-94
2024/01/28 02:50:23;;;;;;;9.70;2.83;;;0.90;99.90;;;;;;5013146;28;20198;-94
2024/01/28 02:52:49;;;;;;;10.73;3.50;;;1.00;99.90;;;;;;5002915;28;20197;-93
2024/01/28 02:55:15;;;;;;;10.33;3.30;;;1.10;99.90;;;;;;4998573;28;20208;-93
2024/01/28 02:57:40;;;;;;;11.43;3.87;;;1.00;99.90;;;;;;5009652;28;20183;-93
2024/01/28 03:00:07;;;;;;;13.23;3.23;;;0.90;99.90;;;;;;5000228;28;20192;-92
2024/01/28 03:02:32;;;;;;;9.20;2.97;;;0.90;99.90;;;;;;4993191;28;20190;-93
2024/01/28 03:05:13;;;;;;;10.30;3.30;;;0.80;99.90;;;;;;5006378;28;20215;-92
2024/01/28 03:07:40;;;;;;;8.93;3.77;;;0.70;99.90;;;;;;5005391;28;20606;-94
2024/01/28 03:10:07;;;;;;;11.70;2.53;;;0.70;99.90;;;;;;4997207;28;20192;-92
2024/01/28 03:12:32;;;;;;;10.67;2.90;;;0.70;99.90;;;;;;4997165;28;20249;-94
2024/01/28 03:15:06;;;;;;;12.60;3.10;;;0.90;99.90;;;;;;4989981;28;20184;-94
2024/01/28 03:17:32;;;;;;;8.50;2.80;;;0.80;99.90;;;;;;4989062;28;20206;-94
2024/01/28 03:19:58;;;;;;;6.53;2.93;;;0.70;99.90;;;;;;5005048;28;20611;-94
2024/01/28 03:22:24;;;;;;;9.73;2.80;;;0.70;99.90;;;;;;5010593;28;20192;-94
2024/01/28 03:24:51;;;;;;;10.07;3.10;;;0.80;99.90;;;;;;4986539;28;20266;-94
2024/01/28 03:27:17;;;;;;;13.30;3.40;;;0.80;99.90;;;;;;4986869;28;20195;-96
2024/01/28 03:29:43;;;;;;;13.30;3.90;;;0.70;99.90;;;;;;5005105;28;20187;-95
2024/01/28 03:32:08;;;;;;;7.73;2.87;;;0.60;99.90;;;;;;5003943;28;20800;-95
2024/01/28 03:34:34;;;;;;;17.07;3.80;;;0.50;99.90;;;;;;4985111;28;20192;-94
2024/01/28 03:37:00;;;;;;;8.37;2.90;;;0.50;99.90;;;;;;4999396;28;20676;-95
2024/01/28 03:39:26;;;;;;;11.53;3.57;;;0.50;99.90;;;;;;5004576;28;20630;-95
2024/01/28 03:41:52;;;;;;;11.20;3.47;;;0.60;99.90;;;;;;5005512;28;20215;-95
2024/01/28 03:44:22;;;;;;;12.23;3.27;;;0.50;99.90;;;;;;4988402;28;20211;-95
2024/01/28 03:46:48;;;;;;;11.03;3.50;;;0.50;99.90;;;;;;4989285;28;20192;-95
2024/01/28 03:49:14;;;;;;;8.23;3.27;;;0.50;99.90;;;;;;5003279;28;20549;-96
2024/01/28 03:51:40;;;;;;;8.97;3.40;;;0.60;99.90;;;;;;4997579;28;20278;-96
2024/01/28 03:54:11;;;;;;;12.53;3.33;;;0.60;99.90;;;;;;4995119;28;20187;-94
2024/01/28 03:56:37;;;;;;;11.43;3.50;;;0.50;99.90;;;;;;4996340;28;20187;-96
2024/01/28 03:59:03;;;;;;;9.47;3.23;;;0.70;99.90;;;;;;5004411;28;20196;-96
2024/01/28 04:01:33;;;;;;;15.40;3.33;;;0.60;99.90;;;;;;5000190;28;20278;-96
2024/01/28 04:04:00;;;;;;;11.47;4.07;;;0.60;99.90;;;;;;4996319;28;20241;-96
2024/01/28 04:06:26;;;;;;;10.83;4.03;;;0.60;99.90;;;;;;5004277;28;21506;-96
2024/01/28 04:08:55;;;;;;;10.60;3.70;;;0.40;99.90;;;;;;4990059;28;20537;-96
2024/01/28 04:11:25;;;;;;;9.13;3.30;;;0.50;99.90;;;;;;4986940;28;20214;-95
2024/01/28 04:13:53;;;;;;;8.60;3.33;;;0.50;99.90;;;;;;4991006;28;20185;-95
2024/01/28 04:16:20;;;;;;;13.57;4.00;;;0.50;99.90;;;;;;5002018;28;20241;-96
2024/01/28 04:18:46;;;;;;;12.20;3.73;;;0.50;99.90;;;;;;4996104;28;20602;-96
2024/01/28 04:21:12;;;;;;;13.30;4.20;;;0.50;99.90;;;;;;5002981;28;20217;-95
2024/01/28 04:23:39;;;;;;;7.07;3.30;;;0.50;99.90;;;;;;4984355;28;20648;-96
2024/01/28 04:26:12;;;;;;;11.20;3.60;;;0.40;99.90;;;;;;4984276;28;20218;-95
2024/01/28 04:28:40;;;;;;;14.30;4.10;;;0.40;99.90;;;;;;4980428;28;20585;-95
2024/01/28 04:31:07;;;;;;;13.13;3.60;;;0.40;99.90;;;;;;4995177;28;20228;-94
2024/01/28 04:33:33;;;;;;;9.67;3.70;;;0.40;99.90;;;;;;4995194;28;20184;-95
2024/01/28 04:36:31;;;;;;;11.30;4.00;;;0.40;99.90;;;;;;4995413;28;20611;-95
2024/01/28 04:38:56;;;;;;;10.93;3.90;;;0.40;99.90;;;;;;4995282;28;20192;-93
2024/01/28 04:41:22;;;;;;;11.53;3.93;;;0.40;99.90;;;;;;4987312;28;20263;-94
2024/01/28 04:43:48;;;;;;;13.00;3.70;;;0.30;99.90;;;;;;5011963;28;20218;-95
2024/01/28 04:46:22;;;;;;;19.03;4.27;;;0.20;99.90;;;;;;5003191;28;20545;-93
2024/01/28 04:49:03;;;;;;;8.27;3.40;;;0.20;99.90;;;;;;5000860;28;20249;-93
2024/01/28 04:51:37;;;;;;;11.73;3.93;;;0.20;99.90;;;;;;4992315;28;20212;-95
2024/01/28 04:54:03;;;;;;;7.83;3.50;;;0.20;99.90;;;;;;4983801;28;20187;-94
2024/01/28 04:56:32;;;;;;;10.00;3.70;;;0.30;99.90;;;;;;5000067;28;20682;-94
2024/01/28 04:58:58;;;;;;;9.23;3.80;;;0.30;99.90;;;;;;4983883;28;20608;-95
2024/01/28 05:01:24;;;;;;;15.53;4.13;;;0.20;99.90;;;;;;4985909;28;20214;-93
2024/01/28 05:03:50;;;;;;;11.50;3.70;;;0.20;99.90;;;;;;5003264;28;20202;-94
2024/01/28 05:06:16;;;;;;;11.60;4.20;;;0.20;99.90;;;;;;5004819;28;20191;-94
2024/01/28 05:08:41;;;;;;;14.60;3.60;;;0.20;99.90;;;;;;4990350;28;20220;-95
2024/01/28 05:11:07;;;;;;;12.67;3.80;;;0.10;99.90;;;;;;4999865;28;20186;-93
2024/01/28 05:13:33;;;;;;;7.50;3.10;;;0.20;99.90;;;;;;4998265;28;20270;-94
2024/01/28 05:15:59;;;;;;;13.77;3.80;;;0.20;99.90;;;;;;4998653;28;20191;-95
2024/01/28 05:18:26;;;;;;;8.83;3.47;;;0.20;99.90;;;;;;4997607;28;20698;-94
2024/01/28 05:20:51;;;;;;;13.17;3.90;;;0.30;99.90;;;;;;4999804;28;20622;-95
2024/01/28 05:23:17;;;;;;;17.60;5.00;;;0.20;99.90;;;;;;4993214;28;20191;-94
2024/01/28 05:25:52;;;;;;;12.00;4.10;;;0.30;99.90;;;;;;4983466;28;20579;-92
2024/01/28 05:28:18;;;;;;;11.87;3.77;;;0.30;99.90;;;;;;4992924;28;20188;-94
2024/01/28 05:30:44;;;;;;;10.57;3.40;;;0.20;99.90;;;;;;5002427;28;20191;-93
2024/01/28 05:33:10;;;;;;;14.10;4.27;;;0.20;99.90;;;;;;5013423;28;20253;-94
2024/01/28 05:35:36;;;;;;;8.20;3.20;;;0.10;99.90;;;;;;4994418;28;20716;-94
2024/01/28 05:38:03;;;;;;;13.40;4.10;;;0.00;99.90;;;;;;4994605;28;20333;-93
2024/01/28 05:40:29;;;;;;;14.67;3.83;;;0.00;99.90;;;;;;4994311;28;20234;-93
2024/01/28 05:42:54;;;;;;;11.53;3.93;;;0.00;99.90;;;;;;5011105;28;20552;-93
2024/01/28 05:45:31;;;;;;;12.97;3.80;;;0.00;99.90;;;;;;5000723;28;20312;-94
2024/01/28 05:48:01;;;;;;;12.93;4.10;;;-0.10;99.90;;;;;;4996393;28;20233;-93
2024/01/28 05:50:30;;;;;;;7.17;3.33;;;0.00;99.90;;;;;;5004147;28;20183;-91
2024/01/28 05:52:56;;;;;;;19.57;3.43;;;0.00;99.90;;;;;;4987493;28;20619;-94
2024/01/28 05:55:23;;;;;;;13.33;3.90;;;-0.10;99.90;;;;;;5003762;28;20229;-94
2024/01/28 05:57:49;;;;;;;13.00;3.70;;;-0.20;99.90;;;;;;5002437;28;20195;-93
2024/01/28 06:00:16;;;;;;;10.00;3.50;;;-0.30;99.90;;;;;;5002214;28;20191;-94
2024/01/28 06:02:43;;;;;;;6.10;3.70;;;-0.20;99.90;;;;;;5005558;28;20191;-94
2024/01/28 06:05:13;;;;;;;12.40;3.60;;;-0.20;99.90;;;;;;4997267;28;20303;-92
2024/01/28 06:07:38;;;;;;;9.57;3.40;;;-0.40;99.90;;;;;;4990002;28;20191;-93
2024/01/28 06:10:05;;;;;;;13.50;3.40;;;-0.40;99.90;;;;;;4991696;28;20614;-94
2024/01/28 06:12:30;;;;;;;16.17;3.70;;;-0.40;99.90;;;;;;5002281;28;20191;-94
2024/01/28 06:15:02;;;;;;;10.27;3.13;;;-0.40;99.90;;;;;;5002577;28;20237;-94
2024/01/28 06:17:29;;;;;;;10.37;3.43;;;-0.40;99.90;;;;;;5001063;28;20188;-94
2024/01/28 06:19:55;;;;;;;6.47;3.53;;;-0.30;99.90;;;;;;4993391;28;20315;-94
2024/01/28 06:22:21;;;;;;;12.37;4.17;;;-0.20;99.90;;;;;;4995998;28;20230;-95
2024/01/28 06:24:47;;;;;;;7.63;3.10;;;-0.10;99.90;;;;;;5001119;28;20209;-94
2024/01/28 06:27:13;;;;;;;9.93;3.57;;;-0.10;99.90;;;;;;5005751;28;20197;-95
2024/01/28 06:29:39;;;;;;;12.60;3.57;;;-0.10;99.90;;;;;;5006438;28;20183;-95
2024/01/28 06:32:05;;;;;;;13.07;3.33;;;-0.20;99.90;;;;;;4994591;28;20677;-94
2024/01/28 06:34:31;;;;;;;17.47;4.00;;;-0.20;99.90;;;;;;4990036;28;20275;-95
2024/01/28 06:37:01;;;;;;;12.20;4.00;;;-0.30;99.90;;;;;;5009373;28;20198;-95
2024/01/28 06:39:26;;;;;;;9.93;3.23;;;-0.30;99.90;;;;;;4995872;28;20192;-94
2024/01/28 06:41:52;;;;;;;13.10;3.87;;;-0.20;99.90;;;;;;4986699;28;20685;-94
2024/01/28 06:44:18;;;;;;;10.83;3.80;;;-0.20;99.90;;;;;;4999706;28;20207;-94
2024/01/28 06:46:45;;;;;;;11.70;3.90;;;-0.20;99.90;;;;;;5014272;28;20202;-94
2024/01/28 06:49:11;;;;;;;18.33;4.63;;;-0.20;99.90;;;;;;5001632;28;20187;-93
2024/01/28 06:51:41;;;;;;;8.03;3.53;;;-0.20;99.90;;;;;;5008484;28;20198;-95
2024/01/28 06:54:08;;;;;;;14.47;3.90;;;-0.20;99.90;;;;;;5009187;28;20198;-93
2024/01/28 06:56:36;;;;;;;12.00;3.93;;;-0.20;99.90;;;;;;4986830;28;20200;-94
2024/01/28 06:59:02;;;;;;;14.30;3.67;;;-0.30;99.90;;;;;;4986174;28;20203;-95
2024/01/28 07:01:28;;;;;;;11.63;3.33;;;-0.30;99.90;;;;;;4992887;28;20197;-95
2024/01/28 07:03:53;;;;;;;11.30;3.67;;;-0.30;99.90;;;;;;4991930;28;20519;-94
2024/01/28 07:06:20;;;;;;;10.50;3.77;;;-0.20;99.90;;;;;;5003487;28;20212;-94
2024/01/28 07:08:46;;;;;;;10.07;3.50;;;-0.20;99.90;;;;;;5016858;28;20199;-95
2024/01/28 07:11:12;;;;;;;11.30;4.07;;;-0.20;99.90;;;;;;5007923;28;20303;-94
2024/01/28 07:13:38;;;;;;;13.10;3.53;;;-0.20;99.90;;;;;;4998433;28;20519;-94
2024/01/28 07:16:05;;;;;;;8.67;3.53;;;-0.20;99.90;;;;;;5004005;28;20187;-93
2024/01/28 07:18:31;;;;;;;13.40;3.57;;;-0.40;99.90;;;;;;5004391;28;20203;-93
2024/01/28 07:20:57;;;;;;;9.47;3.27;;;-0.40;99.90;;;;;;4998239;28;20188;-95
2024/01/28 07:23:23;;;;;;;11.27;3.37;;;-0.40;99.90;;;;;;5002968;28;20227;-94
2024/01/28 07:25:50;;;;;;;10.57;3.90;;;-0.30;99.90;;;;;;5016769;28;20207;-96
2024/01/28 07:28:16;;;;;;;12.00;4.10;;;-0.20;99.90;;;;;;4996513;28;20274;-95
2024/01/28 07:30:43;;;;;;;11.10;4.27;;;-0.10;99.90;;;;;;5000403;28;20349;-95
2024/01/28 07:33:09;;;;;;;12.47;4.57;;;-0.20;99.90;;;;;;4996355;28;20192;-93
2024/01/28 07:35:35;;;;;;;13.37;4.00;;;-0.20;99.90;;;;;;5006443;28;20194;-93
2024/01/28 07:38:18;;;;;;;10.90;5.27;;;-0.10;99.90;;;;;;4997884;28;20198;-96
2024/01/28 07:40:43;;;;;;;16.83;5.63;;;-0.10;99.90;;;;;;5005170;28;20226;-95
2024/01/28 07:43:09;;;;;;;16.07;6.83;;;0.00;99.90;;;;;;5005592;28;20188;-94
2024/01/28 07:45:37;;;;;;;15.17;6.07;;;-0.10;99.90;;;;;;4998198;28;20223;-95
2024/01/28 07:48:03;;;;;;;13.20;4.43;;;-0.20;99.90;;;;;;4991961;28;20319;-94
2024/01/28 07:50:29;;;;;;;13.40;3.40;;;-0.20;99.90;;;;;;5013381;28;20636;-94
2024/01/28 07:52:55;;;;;;;14.07;4.10;;;-0.20;99.90;;;;;;4994596;28;20264;-94
2024/01/28 07:55:21;;;;;;;12.53;3.67;;;-0.20;99.90;;;;;;5008442;28;20179;-94
2024/01/28 07:57:47;;;;;;;9.00;3.50;;;-0.30;99.90;;;;;;5001443;28;20513;-95
2024/01/28 08:00:13;;;;;;;10.80;3.57;;;-0.20;99.90;;;;;;4997937;28;20188;-92
2024/01/28 08:02:39;;;;;;;11.37;3.87;;;-0.10;99.90;;;;;;5016282;28;20270;-92
2024/01/28 08:05:05;;;;;;;9.37;3.67;;;-0.10;99.90;;;;;;4989299;28;20295;-93
2024/01/28 08:07:33;;;;;;;12.30;3.73;;;0.00;99.90;;;;;;5003253;28;20187;-89
2024/01/28 08:09:59;;;;;;;8.90;3.90;;;0.10;99.90;;;;;;5004347;28;20195;-92
2024/01/28 08:12:25;;;;;;;9.53;3.90;;;0.10;99.90;;;;;;4988905;28;20191;-93
2024/01/28 08:14:51;;;;;;;12.00;3.33;;;0.20;99.90;;;;;;4997519;28;20188;-94
2024/01/28 08:17:26;;;;;;;11.03;3.40;;;0.30;99.90;;;;;;5003277;28;20187;-94
2024/01/28 08:19:51;;;;;;;11.60;3.87;;;0.30;99.90;;;;;;5003610;28;20286;-95
2024/01/28 08:22:17;;;;;;;10.10;3.97;;;0.40;99.90;;;;;;4987528;28;20227;-94
2024/01/28 08:24:43;;;;;;;9.77;3.67;;;0.40;99.90;;;;;;5008817;28;20212;-92
2024/01/28 08:27:10;;;;;;;14.03;4.00;;;0.50;99.90;;;;;;5004098;28;20234;-90
2024/01/28 08:29:37;;;;;;;7.13;3.67;;;0.60;99.90;;;;;;5004546;28;20187;-94
2024/01/28 08:32:04;;;;;;;13.03;3.97;;;0.60;99.90;;;;;;4999420;28;20235;-92
2024/01/28 08:34:29;;;;;;;9.30;3.30;;;0.70;99.90;;;;;;4995113;28;20207;-93
2024/01/28 08:36:55;;;;;;;9.57;3.23;;;0.70;99.90;;;;;;4989024;28;20231;-94
2024/01/28 08:39:34;;;;;;;11.33;4.00;;;0.70;99.90;;;;;;4993966;28;20569;-95
2024/01/28 08:42:00;;;;;;;8.50;3.33;;;0.80;99.90;;;;;;4995401;28;20199;-95
2024/01/28 08:44:27;;;;;;;14.83;4.23;;;0.80;99.90;;;;;;4998397;28;20222;-88
2024/01/28 08:46:52;;;;;;;12.73;3.57;;;0.90;99.90;;;;;;5009057;28;20637;-91
2024/01/28 08:49:21;;;;;;;6.63;3.33;;;0.90;99.90;;;;;;5005336;28;20192;-94
2024/01/28 08:51:48;;;;;;;9.37;3.07;;;1.00;99.90;;;;;;5004339;28;20216;-92
2024/01/28 08:54:13;;;;;;;11.47;3.70;;;1.00;99.90;;;;;;5002557;28;20195;-94
2024/01/28 08:56:39;;;;;;;11.43;3.40;;;1.20;99.90;;;;;;4983649;28;20194;-93
2024/01/28 08:59:06;;;;;;;10.83;4.03;;;1.20;99.90;;;;;;5008201;28;20196;-94
2024/01/28 09:01:32;;;;;;;11.30;3.80;;;1.30;99.90;;;;;;4990268;28;20187;-94
2024/01/28 09:04:01;;;;;;;15.73;3.57;;;1.40;99.90;;;;;;5003142;28;20195;-93
2024/01/28 09:06:27;;;;;;;12.43;4.20;;;1.40;99.90;;;;;;4994932;28;20294;-94
2024/01/28 09:09:03;;;;;;;12.53;3.80;;;1.50;99.90;;;;;;4999849;28;20222;-96
2024/01/28 09:11:31;;;;;;;14.23;4.50;;;1.50;99.90;;;;;;5002778;28;20199;-89
2024/01/28 09:13:58;;;;;;;7.83;3.83;;;1.50;99.90;;;;;;5005581;28;20230;-95
2024/01/28 09:16:26;;;;;;;15.27;4.00;;;1.60;99.90;;;;;;4996724;28;20504;-96
2024/01/28 09:18:53;;;;;;;7.60;3.50;;;1.60;99.90;;;;;;5001424;28;20180;-93
2024/01/28 09:21:19;;;;;;;9.73;3.50;;;1.70;99.90;;;;;;4996324;28;20214;-95
2024/01/28 09:23:45;;;;;;;7.27;3.00;;;1.80;99.90;;;;;;5005781;28;20593;-94
2024/01/28 09:26:11;;;;;;;11.80;3.47;;;1.90;99.90;;;;;;4996004;28;20219;-95
2024/01/28 09:28:38;;;;;;;11.97;3.70;;;2.00;99.90;;;;;;5005607;28;20183;-95
2024/01/28 09:31:08;;;;;;;13.87;3.10;;;2.10;99.90;;;;;;4994603;28;20231;-94
2024/01/28 09:33:34;;;;;;;8.10;2.40;;;2.30;99.90;;;;;;5010280;28;20245;-95
2024/01/28 09:36:00;;;;;;;10.07;2.83;;;2.30;99.90;;;;;;5001694;28;20194;-95
2024/01/28 09:38:27;;;;;;;8.43;3.10;;;2.40;99.90;;;;;;4995410;28;20188;-95
2024/01/28 09:40:53;;;;;;;7.13;2.23;;;2.50;99.90;;;;;;5004400;28;20203;-93
2024/01/28 09:43:29;;;;;;;10.17;2.67;;;2.50;99.90;;;;;;5003990;28;20187;-89
2024/01/28 09:45:56;;;;;;;5.90;2.50;;;2.60;99.90;;;;;;5000770;28;20577;-91
2024/01/28 09:48:26;;;;;;;7.43;2.70;;;2.70;99.90;;;;;;5004123;28;20183;-94
2024/01/28 09:50:52;;;;;;;6.70;2.43;;;2.80;99.90;;;;;;4993591;28;20282;-94
2024/01/28 09:53:18;;;;;;;8.43;2.73;;;2.80;99.90;;;;;;4997428;28;20274;-94
2024/01/28 09:55:43;;;;;;;10.03;2.57;;;2.90;99.90;;;;;;5001303;28;20198;-88
2024/01/28 09:58:09;;;;;;;6.13;2.00;;;3.00;99.90;;;;;;4998289;28;20191;-86
2024/01/28 10:00:37;;;;;;;6.33;2.23;;;3.10;99.90;;;;;;5002279;28;20660;-92
2024/01/28 10:03:04;;;;;;;6.83;1.87;;;3.20;99.90;;;;;;5011690;28;20191;-88
2024/01/28 10:05:30;;;;;;;8.43;2.63;;;3.20;99.90;;;;;;5013860;28;20221;-92
2024/01/28 10:08:02;;;;;;;7.17;2.00;;;3.30;99.90;;;;;;5010157;28;20183;-85
2024/01/28 10:10:29;;;;;;;6.20;1.97;;;3.30;99.90;;;;;;4997592;28;20281;-92
2024/01/28 10:12:56;;;;;;;6.07;2.10;;;3.40;99.90;;;;;;5012729;28;20191;-87
2024/01/28 10:15:25;;;;;;;4.87;2.07;;;3.50;99.90;;;;;;4999591;28;20188;-92
2024/01/28 10:17:52;;;;;;;10.33;2.30;;;3.50;99.90;;;;;;5010661;28;20216;-88
2024/01/28 10:20:20;;;;;;;7.83;2.03;;;3.60;99.90;;;;;;5000033;28;20238;-88
2024/01/28 10:22:47;;;;;;;8.77;2.10;;;3.70;99.90;;;;;;5005412;28;20191;-87
2024/01/28 10:25:15;;;;;;;10.00;2.57;;;3.70;99.90;;;;;;4997341;28;20231;-88
2024/01/28 10:27:45;;;;;;;6.80;2.10;;;3.80;99.90;;;;;;4996711;28;20195;-92
2024/01/28 10:30:13;;;;;;;7.93;1.87;;;3.90;99.90;;;;;;5002936;28;20193;-94
2024/01/28 10:32:39;;;;;;;6.67;2.50;;;4.00;99.90;;;;;;4999005;28;20235;-95
2024/01/28 10:35:09;;;;;;;12.60;2.00;;;4.00;99.90;;;;;;5005927;28;20673;-95
2024/01/28 10:37:35;;;;;;;10.30;2.43;;;4.00;99.90;;;;;;4990984;28;20188;-94
2024/01/28 10:40:08;;;;;;;10.20;2.20;;;4.10;99.90;;;;;;5005743;28;20218;-96
2024/01/28 10:42:41;;;;;;;9.97;2.00;;;4.10;99.90;;;;;;4999011;28;20275;-96
2024/01/28 10:45:13;;;;;;;7.47;2.40;;;4.10;99.90;;;;;;4998062;28;20223;-95
2024/01/28 10:47:48;;;;;;;9.07;2.10;;;4.10;99.90;;;;;;5019444;28;20198;-95
2024/01/28 10:50:24;;;;;;;10.83;2.23;;;4.20;99.90;;;;;;5010328;28;20269;-93
2024/01/28 10:52:51;;;;;;;7.60;2.27;;;4.30;99.90;;;;;;5003862;28;20195;-94
2024/01/28 10:55:20;;;;;;;6.60;2.00;;;4.30;99.90;;;;;;5004369;28;20191;-91
2024/01/28 10:57:46;;;;;;;9.10;2.10;;;4.30;99.90;;;;;;4990941;28;20188;-92
2024/01/28 11:00:20;;;;;;;7.90;2.00;;;4.40;99.90;;;;;;4998116;28;20242;-93
2024/01/28 11:02:47;;;;;;;4.10;1.53;;;4.50;99.90;;;;;;5004997;28;20195;-92
2024/01/28 11:05:13;;;;;;;5.37;1.93;;;4.60;99.90;;;;;;5004482;28;20223;-91
2024/01/28 11:07:39;;;;;;;5.37;1.93;;;4.70;99.90;;;;;;4997788;28;20621;-90
2024/01/28 11:10:13;;;;;;;7.43;1.73;;;4.80;99.90;;;;;;4998133;28;20192;-92
2024/01/28 11:12:39;;;;;;;12.30;2.13;;;4.80;99.90;;;;;;5004114;28;20184;-91
2024/01/28 11:15:10;;;;;;;4.47;1.80;;;4.90;99.90;;;;;;5004731;28;20257;-91
2024/01/28 11:17:37;;;;;;;5.33;1.90;;;4.90;99.90;;;;;;5001254;28;20184;-91
2024/01/28 11:20:16;;;;;;;8.03;2.00;;;5.00;99.90;;;;;;5008548;28;20211;-91
2024/01/28 11:23:05;;;;;;;6.40;2.17;;;5.00;99.90;;;;;;5010939;28;20166;-91
2024/01/28 11:25:33;;;;;;;8.40;1.90;;;5.10;99.90;;;;;;4997440;28;20220;-90
2024/01/28 11:28:01;;;;;;;4.97;1.97;;;5.20;99.90;;;;;;5001391;28;20215;-91
2024/01/28 11:30:29;;;;;;;10.20;1.83;;;5.30;99.90;;;;;;4988575;28;20199;-89
2024/01/28 11:33:15;;;;;;;3.73;1.70;;;5.30;99.90;;;;;;5004777;28;20228;-90
2024/01/28 11:35:44;;;;;;;6.67;2.00;;;5.40;99.90;;;;;;4992611;28;20626;-89
2024/01/28 11:38:10;;;;;;;7.60;1.97;;;5.40;99.90;;;;;;4996401;28;20203;-89
2024/01/28 11:40:48;;;;;;;5.00;2.00;;;5.50;99.90;;;;;;4996438;28;20220;-91
2024/01/28 11:43:14;;;;;;;5.53;1.80;;;5.50;99.90;;;;;;4988355;28;20188;-91
2024/01/28 11:45:40;;;;;;;8.63;1.90;;;5.50;99.90;;;;;;4989252;28;20269;-91
2024/01/28 11:48:10;;;;;;;5.83;1.80;;;5.60;99.90;;;;;;5012460;28;20214;-91
2024/01/28 11:50:38;;;;;;;5.60;1.67;;;5.60;99.90;;;;;;4997301;28;20678;-90
2024/01/28 11:53:09;;;;;;;7.10;1.90;;;5.80;99.90;;;;;;5007564;28;20202;-91
2024/01/28 11:55:35;;;;;;;6.47;1.60;;;5.90;99.90;;;;;;5005138;28;20180;-91
2024/01/28 11:58:01;;;;;;;6.07;2.00;;;6.10;99.90;;;;;;5002544;28;20322;-90
2024/01/28 12:00:29;;;;;;;7.47;1.77;;;6.20;99.90;;;;;;5005550;28;20199;-91
2024/01/28 12:02:57;;;;;;;8.53;1.60;;;6.30;99.90;;;;;;4996955;28;20202;-89
2024/01/28 12:05:23;;;;;;;5.30;1.70;;;6.30;99.90;;;;;;5003881;28;20669;-90
2024/01/28 12:07:52;;;;;;;6.83;1.70;;;6.30;99.90;;;;;;5009343;28;20187;-90
2024/01/28 12:10:22;;;;;;;3.80;1.43;;;6.30;99.90;;;;;;5015640;28;20283;-91
2024/01/28 12:12:48;;;;;;;5.83;1.90;;;6.30;99.90;;;;;;5003186;28;20208;-91
2024/01/28 12:15:14;;;;;;;6.37;1.60;;;6.30;99.90;;;;;;4997313;28;20289;-91
2024/01/28 12:17:42;;;;;;;5.30;1.20;;;6.30;99.90;;;;;;5000169;28;20206;-91
2024/01/28 12:20:20;;;;;;;5.53;1.50;;;6.50;99.90;;;;;;4999012;28;20187;-91
2024/01/28 12:22:46;;;;;;;4.17;1.67;;;6.60;99.90;;;;;;4990837;28;20180;-91
2024/01/28 12:25:18;;;;;;;5.13;1.47;;;6.70;99.90;;;;;;5004819;28;20375;-90
2024/01/28 12:27:44;;;;;;;8.40;2.03;;;6.70;99.90;;;;;;5008378;28;20275;-92
2024/01/28 12:30:10;;;;;;;8.27;1.67;;;6.90;99.90;;;;;;5006747;28;20251;-91
2024/01/28 12:32:39;;;;;;;6.23;1.43;;;6.90;99.90;;;;;;5012408;28;20253;-91
2024/01/28 12:35:09;;;;;;;6.23;1.40;;;7.00;99.90;;;;;;5006353;28;20191;-91
2024/01/28 12:37:39;;;;;;;7.43;1.70;;;7.00;99.90;;;;;;4994815;28;20188;-90
2024/01/28 12:40:08;;;;;;;6.80;1.67;;;7.00;99.90;;;;;;4996285;28;20192;-91
2024/01/28 12:42:36;;;;;;;4.33;1.80;;;6.90;99.90;;;;;;5003341;28;20567;-90
2024/01/28 12:45:02;;;;;;;4.90;1.70;;;7.00;99.90;;;;;;4995118;28;20215;-91
2024/01/28 12:47:28;;;;;;;8.90;1.73;;;7.00;99.90;;;;;;4995023;28;20564;-90
2024/01/28 12:49:53;;;;;;;4.37;1.70;;;7.00;99.90;;;;;;4994713;28;20631;-90
2024/01/28 12:52:19;;;;;;;6.20;1.53;;;7.00;99.90;;;;;;4994770;28;20635;-91
2024/01/28 12:54:45;;;;;;;4.43;1.47;;;7.00;99.90;;;;;;4990053;28;20184;-89